Time;durP1;ratioP1;P1;durP2;ratioP2;P2;SDS_P1;SDS_P2;PMS_P1;PMS_P2;Temp;Humidity;BMP_temperature;BMP_pressure;BME280_temperature;BME280_humidity;BME280_pressure;Samples;Min_cycle;Max_cycle;Signal;HPM_P1;HPM_P2
2022/03/19 00:01:51;;;;;;;31.43;15.70;;;2.70;99.90;;;;;;4923024;29;20187;-50
2022/03/19 00:04:16;;;;;;;39.27;15.47;;;2.70;82.00;;;;;;4914977;29;20812;-50
2022/03/19 00:06:46;;;;;;;38.03;15.60;;;2.70;99.90;;;;;;4913909;29;20194;-50
2022/03/19 00:09:12;;;;;;;35.43;15.10;;;2.60;99.90;;;;;;4910575;29;20203;-50
2022/03/19 00:11:38;;;;;;;30.63;16.20;;;2.60;1.00;;;;;;4915048;29;20441;-50
2022/03/19 00:14:04;;;;;;;34.33;16.00;;;2.50;99.90;;;;;;4914820;29;20950;-49
2022/03/19 00:16:30;;;;;;;32.03;16.40;;;2.50;99.90;;;;;;4914861;29;20486;-51
2022/03/19 00:18:55;;;;;;;34.97;16.00;;;2.50;99.90;;;;;;4913656;29;20191;-50
2022/03/19 00:21:21;;;;;;;34.47;14.90;;;2.50;99.90;;;;;;4914902;29;20210;-50
2022/03/19 00:23:47;;;;;;;36.33;15.33;;;2.50;1.00;;;;;;4911332;29;20222;-50
2022/03/19 00:26:14;;;;;;;33.13;14.83;;;2.40;99.90;;;;;;4914959;29;20305;-49
2022/03/19 00:28:41;;;;;;;33.27;14.37;;;2.40;99.90;;;;;;4909089;29;20440;-50
2022/03/19 00:31:07;;;;;;;34.80;14.90;;;2.40;1.00;;;;;;4914273;29;20455;-50
2022/03/19 00:33:32;;;;;;;35.20;13.97;;;2.40;1.00;;;;;;4914244;29;20451;-50
2022/03/19 00:35:58;;;;;;;33.27;14.40;;;2.40;1.00;;;;;;4897352;29;20526;-44
2022/03/19 00:38:24;;;;;;;29.13;12.97;;;2.30;1.00;;;;;;4897631;29;20289;-44
2022/03/19 00:40:51;;;;;;;28.47;12.50;;;2.30;1.00;;;;;;4914618;29;20227;-44
2022/03/19 00:43:19;;;;;;;30.37;12.63;;;2.30;1.00;;;;;;4915513;29;20360;-44
2022/03/19 00:45:46;;;;;;;24.73;12.60;;;2.30;1.00;;;;;;4914902;29;20439;-44
2022/03/19 00:48:12;;;;;;;23.27;11.70;;;2.20;1.00;;;;;;4913962;29;20474;-44
2022/03/19 00:50:38;;;;;;;36.70;12.10;;;2.20;99.90;;;;;;4913766;29;20442;-44
2022/03/19 00:53:03;;;;;;;27.73;11.10;;;2.20;99.90;;;;;;4913352;29;20206;-44
2022/03/19 00:55:29;;;;;;;23.00;10.80;;;2.20;99.90;;;;;;4913464;29;20199;-44
2022/03/19 00:57:54;;;;;;;29.50;11.20;;;2.20;1.00;;;;;;4913555;29;20562;-44
2022/03/19 01:00:24;;;;;;;27.60;11.63;;;2.10;1.00;;;;;;4913681;29;20266;-45
2022/03/19 01:02:50;;;;;;;25.97;12.70;;;2.10;1.00;;;;;;4913114;29;20187;-44
2022/03/19 01:05:16;;;;;;;24.63;11.80;;;2.20;99.90;;;;;;4912474;29;20890;-44
2022/03/19 01:07:47;;;;;;;25.20;11.10;;;2.10;1.00;;;;;;4913998;29;20439;-44
2022/03/19 01:10:16;;;;;;;29.70;11.17;;;2.10;99.90;;;;;;4909820;29;20188;-44
2022/03/19 01:12:42;;;;;;;41.63;12.80;;;2.10;99.90;;;;;;4909513;29;20447;-44
2022/03/19 01:15:09;;;;;;;33.47;11.50;;;2.10;99.90;;;;;;4908530;29;20526;-44
2022/03/19 01:17:35;;;;;;;27.23;11.90;;;2.10;66.80;;;;;;4912316;29;20447;-44
2022/03/19 01:20:02;;;;;;;28.67;11.63;;;2.10;99.90;;;;;;4914167;29;20466;-44
2022/03/19 01:22:28;;;;;;;37.73;12.50;;;2.00;99.90;;;;;;4912039;29;20937;-43
2022/03/19 01:24:54;;;;;;;26.03;11.43;;;2.00;1.00;;;;;;4913182;29;20445;-43
2022/03/19 01:27:20;;;;;;;31.20;11.30;;;2.00;1.00;;;;;;4913286;29;21148;-43
2022/03/19 01:29:46;;;;;;;29.27;11.93;;;1.90;1.00;;;;;;4914654;29;20522;-44
2022/03/19 01:32:12;;;;;;;26.00;11.30;;;1.90;1.00;;;;;;4913621;29;20187;-43
2022/03/19 01:34:37;;;;;;;26.70;11.20;;;1.80;1.00;;;;;;4912637;29;20245;-43
2022/03/19 01:37:03;;;;;;;30.93;12.03;;;1.80;1.00;;;;;;4913276;29;20191;-43
2022/03/19 01:39:29;;;;;;;22.67;11.00;;;1.80;1.00;;;;;;4912999;29;20202;-46
2022/03/19 01:41:54;;;;;;;27.27;11.03;;;1.70;1.00;;;;;;4913246;29;20499;-44
2022/03/19 01:44:21;;;;;;;24.07;10.63;;;1.70;99.90;;;;;;4912573;29;20202;-44
2022/03/19 01:46:55;;;;;;;30.37;11.40;;;1.70;1.00;;;;;;4911598;29;20183;-44
2022/03/19 01:49:21;;;;;;;25.20;11.30;;;1.70;1.00;;;;;;4910010;29;20435;-44
2022/03/19 01:51:46;;;;;;;24.57;10.53;;;1.70;1.00;;;;;;4913388;29;20439;-43
2022/03/19 01:54:12;;;;;;;29.43;10.83;;;1.60;99.90;;;;;;4896022;29;20202;-43
2022/03/19 01:56:38;;;;;;;29.97;10.60;;;1.60;1.00;;;;;;4912575;29;20243;-44
2022/03/19 01:59:05;;;;;;;30.13;12.10;;;1.60;36.30;;;;;;4912737;29;20243;-44
2022/03/19 02:01:32;;;;;;;23.40;10.57;;;1.60;20.00;;;;;;4913646;29;20977;-44
2022/03/19 02:03:59;;;;;;;21.87;10.20;;;1.60;99.90;;;;;;4912641;29;20474;-44
2022/03/19 02:06:28;;;;;;;30.70;10.73;;;1.50;99.90;;;;;;4911953;29;20545;-43
2022/03/19 02:08:54;;;;;;;30.90;10.00;;;1.50;99.90;;;;;;4913926;29;20426;-43
2022/03/19 02:11:20;;;;;;;24.00;9.87;;;1.50;1.00;;;;;;4913954;29;20921;-43
2022/03/19 02:13:46;;;;;;;26.40;10.23;;;1.50;99.90;;;;;;4913606;29;20286;-43
2022/03/19 02:16:12;;;;;;;32.33;9.40;;;1.50;1.00;;;;;;4912033;29;21112;-43
2022/03/19 02:18:38;;;;;;;25.87;10.30;;;1.40;1.00;;;;;;4913488;29;20542;-44
2022/03/19 02:21:04;;;;;;;18.77;9.90;;;1.50;1.00;;;;;;4912354;29;20218;-43
2022/03/19 02:26:13;;;;;;;27.37;10.43;;;1.40;1.00;;;;;;4896058;29;20599;-44
2022/03/19 02:28:39;;;;;;;25.33;10.40;;;1.50;1.00;;;;;;4914528;29;21162;-43
2022/03/19 02:31:04;;;;;;;17.07;8.53;;;1.50;99.90;;;;;;4913289;29;20190;-47
2022/03/19 02:33:30;;;;;;;27.17;9.97;;;1.40;99.90;;;;;;4896380;29;20222;-44
2022/03/19 02:35:56;;;;;;;19.10;9.10;;;1.40;1.00;;;;;;4912034;29;20388;-44
2022/03/19 02:38:21;;;;;;;20.77;8.60;;;1.30;99.90;;;;;;4912745;29;20187;-43
2022/03/19 02:40:47;;;;;;;17.47;8.20;;;1.30;1.00;;;;;;4912167;29;20274;-44
2022/03/19 02:43:12;;;;;;;21.03;9.20;;;1.30;1.00;;;;;;4913833;29;20195;-43
2022/03/19 02:45:39;;;;;;;25.50;9.17;;;1.30;99.90;;;;;;4915971;29;20199;-44
2022/03/19 02:48:05;;;;;;;23.30;8.90;;;1.20;1.70;;;;;;4916418;29;20190;-43
2022/03/19 02:50:33;;;;;;;26.57;8.37;;;1.20;1.00;;;;;;4916772;29;20423;-44
2022/03/19 02:53:01;;;;;;;21.73;10.53;;;1.20;1.00;;;;;;4917091;29;20183;-43
2022/03/19 02:55:40;;;;;;;20.30;8.37;;;1.20;1.00;;;;;;4913865;29;20838;-43
2022/03/19 02:58:07;;;;;;;22.73;8.40;;;1.20;1.00;;;;;;4916493;29;20457;-44
2022/03/19 03:00:33;;;;;;;21.80;8.53;;;1.20;99.90;;;;;;4912830;29;20481;-44
2022/03/19 03:02:59;;;;;;;23.20;8.30;;;1.20;99.90;;;;;;4916925;29;20445;-44
2022/03/19 03:05:25;;;;;;;21.33;8.53;;;1.10;1.00;;;;;;4915977;29;20430;-43
2022/03/19 03:07:51;;;;;;;25.70;8.90;;;1.10;1.00;;;;;;4915438;29;20451;-45
2022/03/19 03:10:18;;;;;;;25.43;8.20;;;1.10;1.00;;;;;;4916171;29;20463;-43
2022/03/19 03:12:44;;;;;;;26.07;8.60;;;1.10;99.90;;;;;;4912207;29;20254;-44
2022/03/19 03:15:10;;;;;;;23.43;8.00;;;1.10;1.00;;;;;;4913922;29;20453;-43
2022/03/19 03:17:36;;;;;;;19.13;8.30;;;1.10;99.90;;;;;;4915809;29;20270;-44
2022/03/19 03:20:03;;;;;;;23.13;7.63;;;1.10;1.00;;;;;;4916242;29;20557;-43
2022/03/19 03:22:32;;;;;;;25.20;8.50;;;1.00;1.00;;;;;;4915941;29;20198;-49
2022/03/19 03:24:57;;;;;;;25.53;7.27;;;1.00;1.00;;;;;;4915748;29;20492;-49
2022/03/19 03:27:23;;;;;;;20.13;7.60;;;1.00;1.00;;;;;;4929431;29;20427;-50
2022/03/19 03:29:49;;;;;;;22.43;7.10;;;1.00;99.90;;;;;;4916100;29;20209;-50
2022/03/19 03:32:15;;;;;;;21.13;7.40;;;1.00;99.90;;;;;;4912426;29;20878;-50
2022/03/19 03:34:41;;;;;;;17.93;6.60;;;1.00;99.90;;;;;;4913910;29;20443;-49
2022/03/19 03:37:07;;;;;;;15.93;6.70;;;1.00;1.00;;;;;;4916064;29;20198;-49
2022/03/19 03:39:32;;;;;;;14.30;6.77;;;1.00;1.00;;;;;;4915570;29;20443;-49
2022/03/19 03:41:58;;;;;;;24.07;7.10;;;0.90;99.90;;;;;;4915529;29;20191;-49
2022/03/19 03:44:23;;;;;;;16.87;7.43;;;0.90;99.90;;;;;;4914400;29;20889;-50
2022/03/19 03:46:49;;;;;;;19.63;7.60;;;0.90;99.90;;;;;;4915311;29;20205;-50
2022/03/19 03:49:14;;;;;;;17.10;6.93;;;0.80;99.90;;;;;;4915711;29;20195;-43
2022/03/19 03:51:40;;;;;;;21.30;7.37;;;0.80;99.90;;;;;;4914576;29;20202;-43
2022/03/19 03:54:07;;;;;;;22.20;7.50;;;0.80;1.00;;;;;;4913615;29;20904;-43
2022/03/19 03:56:34;;;;;;;19.10;7.90;;;0.80;4.40;;;;;;4915037;29;20490;-44
2022/03/19 03:59:00;;;;;;;14.97;7.27;;;0.80;37.50;;;;;;4915454;29;20913;-43
2022/03/19 04:01:25;;;;;;;22.83;8.17;;;0.80;1.00;;;;;;4915943;29;20482;-49
2022/03/19 04:03:51;;;;;;;19.13;7.90;;;0.80;1.00;;;;;;4915280;29;20203;-49
2022/03/19 04:06:16;;;;;;;20.10;7.27;;;0.70;99.90;;;;;;4913606;29;20172;-49
2022/03/19 04:08:43;;;;;;;17.63;6.87;;;0.70;99.90;;;;;;4915059;29;20194;-49
2022/03/19 04:11:09;;;;;;;15.63;6.30;;;0.60;99.90;;;;;;4914852;29;20194;-49
2022/03/19 04:13:35;;;;;;;21.07;7.07;;;0.60;99.90;;;;;;4914698;29;20443;-49
2022/03/19 04:16:00;;;;;;;20.83;6.30;;;0.50;99.90;;;;;;4914777;29;20179;-54
2022/03/19 04:18:26;;;;;;;23.93;6.60;;;0.50;99.90;;;;;;4914976;29;20427;-49
2022/03/19 04:20:53;;;;;;;17.33;7.23;;;0.50;1.00;;;;;;4897980;29;20214;-50
2022/03/19 04:23:20;;;;;;;21.37;6.43;;;0.50;63.40;;;;;;4914991;29;20427;-49
2022/03/19 04:25:46;;;;;;;24.13;7.47;;;0.50;99.90;;;;;;4897188;29;20427;-49
2022/03/19 04:28:12;;;;;;;17.47;6.57;;;0.50;1.00;;;;;;4914699;29;20438;-50
2022/03/19 04:30:38;;;;;;;23.27;7.40;;;0.50;1.00;;;;;;4914767;29;20195;-49
2022/03/19 04:33:07;;;;;;;21.10;6.67;;;0.50;99.90;;;;;;4914211;29;20527;-43
2022/03/19 04:38:20;;;;;;;22.13;7.17;;;0.50;99.90;;;;;;4913588;29;21004;-43
2022/03/19 04:40:48;;;;;;;19.10;6.53;;;0.40;1.00;;;;;;4914370;29;20458;-49
2022/03/19 04:43:14;;;;;;;16.93;6.63;;;0.40;99.90;;;;;;4914454;29;20514;-49
2022/03/19 04:45:40;;;;;;;20.60;7.03;;;0.40;1.00;;;;;;4910969;29;20537;-49
2022/03/19 04:48:07;;;;;;;13.20;6.90;;;0.40;99.90;;;;;;4914659;29;20442;-49
2022/03/19 04:50:36;;;;;;;23.33;7.00;;;0.40;99.90;;;;;;4914717;29;20487;-49
2022/03/19 04:53:03;;;;;;;20.03;7.57;;;0.40;99.90;;;;;;4912247;29;20461;-49
2022/03/19 04:55:29;;;;;;;15.07;5.90;;;0.40;1.00;;;;;;4913605;29;20471;-49
2022/03/19 04:57:54;;;;;;;18.30;6.70;;;0.40;99.90;;;;;;4913569;29;20470;-50
2022/03/19 05:00:20;;;;;;;12.77;5.67;;;0.40;99.90;;;;;;4897362;29;20732;-49
2022/03/19 05:02:45;;;;;;;16.10;6.33;;;0.40;1.00;;;;;;4914449;29;20608;-49
2022/03/19 05:05:11;;;;;;;15.50;5.60;;;0.30;1.00;;;;;;4896256;29;20516;-49
2022/03/19 05:07:39;;;;;;;11.30;6.00;;;0.30;1.00;;;;;;4914555;29;20187;-48
2022/03/19 05:12:51;;;;;;;22.83;5.80;;;0.30;1.00;;;;;;4912954;29;20445;-49
2022/03/19 05:15:17;;;;;;;16.53;6.00;;;0.30;99.90;;;;;;4914562;29;20447;-49
2022/03/19 05:17:46;;;;;;;20.20;7.33;;;0.20;99.90;;;;;;4914212;29;20179;-49
2022/03/19 05:20:13;;;;;;;19.13;5.97;;;0.20;99.90;;;;;;4914048;29;20570;-49
2022/03/19 05:22:39;;;;;;;15.93;6.20;;;0.20;1.00;;;;;;4909902;29;20821;-49
2022/03/19 05:25:06;;;;;;;27.90;6.17;;;0.20;71.60;;;;;;4914206;29;20595;-49
2022/03/19 05:27:32;;;;;;;17.17;6.03;;;0.20;91.40;;;;;;4913881;29;20187;-49
2022/03/19 05:29:58;;;;;;;21.07;6.50;;;0.20;86.70;;;;;;4896205;29;21135;-49
2022/03/19 05:32:24;;;;;;;19.73;6.60;;;0.20;99.90;;;;;;4910683;29;20446;-49
2022/03/19 05:34:50;;;;;;;13.37;5.57;;;0.20;99.90;;;;;;4913417;29;20474;-49
2022/03/19 05:37:16;;;;;;;15.40;5.50;;;0.10;1.00;;;;;;4913932;29;20454;-49
2022/03/19 05:39:42;;;;;;;18.53;4.80;;;0.10;1.00;;;;;;4913758;29;20478;-48
2022/03/19 05:42:09;;;;;;;20.53;5.90;;;0.10;99.90;;;;;;4896070;29;20512;-49
2022/03/19 05:44:35;;;;;;;18.60;5.90;;;0.10;1.00;;;;;;4923801;29;20427;-49
2022/03/19 05:47:00;;;;;;;21.10;6.20;;;0.10;99.90;;;;;;4910305;29;20506;-49
2022/03/19 05:49:27;;;;;;;12.77;5.70;;;0.10;1.00;;;;;;4913582;29;20444;-49
2022/03/19 05:51:55;;;;;;;20.03;6.33;;;0.10;1.00;;;;;;4912559;29;20328;-49
2022/03/19 05:54:21;;;;;;;17.47;5.13;;;0.10;1.00;;;;;;4913518;29;20438;-49
2022/03/19 05:56:47;;;;;;;9.70;5.10;;;0.20;1.00;;;;;;4911080;29;20481;-49
2022/03/19 05:59:12;;;;;;;19.47;5.60;;;0.20;99.90;;;;;;4912713;29;20474;-47
2022/03/19 06:01:38;;;;;;;22.00;6.70;;;0.20;1.00;;;;;;4912010;29;20223;-48
2022/03/19 06:04:04;;;;;;;28.23;6.30;;;0.20;99.90;;;;;;4913745;29;20194;-48
2022/03/19 06:06:30;;;;;;;17.30;6.03;;;0.30;99.90;;;;;;4913234;29;20740;-48
2022/03/19 06:08:56;;;;;;;28.20;7.13;;;0.30;1.00;;;;;;4913581;29;20185;-49
2022/03/19 06:11:21;;;;;;;20.27;5.80;;;0.40;1.00;;;;;;4913398;29;20446;-49
2022/03/19 06:13:48;;;;;;;16.93;5.93;;;0.40;1.00;;;;;;4912112;29;20442;-52
2022/03/19 06:16:13;;;;;;;18.83;5.67;;;0.50;1.00;;;;;;4912445;29;20208;-48
2022/03/19 06:18:39;;;;;;;17.30;6.23;;;0.50;99.90;;;;;;4913441;29;20927;-42
2022/03/19 06:21:05;;;;;;;14.43;6.10;;;0.60;1.00;;;;;;4912986;29;20558;-42
2022/03/19 06:23:30;;;;;;;23.37;6.60;;;0.60;1.00;;;;;;4913098;29;20198;-43
2022/03/19 06:25:57;;;;;;;15.30;5.73;;;0.70;1.00;;;;;;4910220;29;20193;-43
2022/03/19 06:28:22;;;;;;;13.33;5.23;;;0.80;99.90;;;;;;4913142;29;20187;-43
2022/03/19 06:30:48;;;;;;;18.23;6.17;;;0.90;99.90;;;;;;4913023;29;20841;-43
2022/03/19 06:33:14;;;;;;;16.93;7.17;;;1.10;99.90;;;;;;4912857;29;20187;-42
2022/03/19 06:38:28;;;;;;;16.43;5.77;;;1.40;1.00;;;;;;4911333;29;20441;-49
2022/03/19 06:40:54;;;;;;;18.37;6.77;;;1.60;99.90;;;;;;4912831;29;20476;-49
2022/03/19 06:43:20;;;;;;;20.87;5.40;;;1.70;1.00;;;;;;4899028;29;20436;-48
2022/03/19 06:45:45;;;;;;;14.63;6.00;;;1.90;1.00;;;;;;4894370;29;20442;-43
2022/03/19 06:48:11;;;;;;;16.60;5.23;;;2.20;99.90;;;;;;4912459;29;20434;-43
2022/03/19 06:50:37;;;;;;;11.97;5.03;;;2.40;99.90;;;;;;4913057;29;20195;-43
2022/03/19 06:53:04;;;;;;;16.77;5.23;;;2.70;1.00;;;;;;4911649;29;20267;-50
2022/03/19 06:55:30;;;;;;;17.47;4.50;;;3.00;1.00;;;;;;4892093;29;20183;-42
2022/03/19 06:57:56;;;;;;;12.67;4.30;;;3.30;99.90;;;;;;4912814;29;20498;-43
2022/03/19 07:00:22;;;;;;;15.50;4.63;;;3.50;1.00;;;;;;4912254;29;20953;-43
2022/03/19 07:02:53;;;;;;;14.90;4.87;;;3.70;99.90;;;;;;4912277;29;20844;-42
2022/03/19 07:05:23;;;;;;;12.40;3.80;;;3.80;99.90;;;;;;4912615;29;21077;-42
2022/03/19 07:07:49;;;;;;;12.73;4.07;;;4.00;1.00;;;;;;4912634;29;20474;-42
2022/03/19 07:10:15;;;;;;;10.70;4.27;;;4.20;1.00;;;;;;4911269;29;20461;-42
2022/03/19 07:12:45;;;;;;;9.13;4.23;;;4.40;1.00;;;;;;4911549;29;20529;-43
2022/03/19 07:15:15;;;;;;;10.20;3.77;;;4.80;1.00;;;;;;4911998;29;20530;-42
2022/03/19 07:17:43;;;;;;;11.67;4.03;;;5.10;1.00;;;;;;4907003;29;20453;-42
2022/03/19 07:20:10;;;;;;;8.80;3.30;;;5.50;1.00;;;;;;4912273;29;20565;-43
2022/03/19 07:23:06;;;;;;;16.93;3.37;;;6.00;99.90;;;;;;4909480;29;20936;-48
2022/03/19 07:25:37;;;;;;;11.13;4.10;;;6.50;99.90;;;;;;4897475;29;20447;-48
2022/03/19 07:28:05;;;;;;;10.30;3.10;;;7.00;99.90;;;;;;4914164;29;20445;-48
2022/03/19 07:30:31;;;;;;;21.43;3.17;;;7.70;99.90;;;;;;4916448;29;20435;-49
2022/03/19 07:32:57;;;;;;;8.27;3.13;;;8.30;99.90;;;;;;4920320;29;20442;-49
2022/03/19 07:35:23;;;;;;;10.00;3.10;;;8.90;99.90;;;;;;4915352;29;20250;-49
2022/03/19 07:37:49;;;;;;;12.03;3.83;;;9.10;99.90;;;;;;4915469;29;20190;-48
2022/03/19 07:41:45;;;;;;;21.53;9.90;;;9.30;99.90;;;;;;4918330;29;20788;-49
2022/03/19 07:43:09;;;;;;;23.83;4.20;;;9.50;99.90;;;;;;4914589;29;20438;-49
2022/03/19 07:45:36;;;;;;;16.80;3.60;;;9.80;99.90;;;;;;4915012;29;20427;-49
2022/03/19 07:48:02;;;;;;;11.23;3.10;;;10.10;99.90;;;;;;4914663;29;20449;-50
2022/03/19 07:50:28;;;;;;;6.50;2.40;;;10.30;99.90;;;;;;4914980;29;20932;-49
2022/03/19 07:52:53;;;;;;;14.63;2.70;;;10.70;99.90;;;;;;4915274;29;20439;-49
2022/03/19 07:55:19;;;;;;;12.80;3.00;;;11.10;99.90;;;;;;4915600;29;20519;-49
2022/03/19 07:57:45;;;;;;;9.13;2.83;;;11.50;99.90;;;;;;4914786;29;20238;-50
2022/03/19 08:00:12;;;;;;;9.07;3.00;;;11.80;99.90;;;;;;4917240;29;20308;-50
2022/03/19 08:02:39;;;;;;;15.37;3.37;;;12.00;99.90;;;;;;4914752;29;20198;-51
2022/03/19 08:05:06;;;;;;;13.13;3.63;;;12.30;99.90;;;;;;4915404;29;20518;-49
2022/03/19 08:07:31;;;;;;;12.30;2.73;;;12.40;99.90;;;;;;4915112;29;20808;-49
2022/03/19 08:09:57;;;;;;;7.80;3.17;;;12.70;99.90;;;;;;4898379;29;20455;-48
2022/03/19 08:12:24;;;;;;;14.53;3.53;;;13.00;99.90;;;;;;4897767;29;20238;-50
2022/03/19 08:14:49;;;;;;;10.40;3.07;;;13.30;99.90;;;;;;4891759;29;20207;-49
2022/03/19 08:17:15;;;;;;;6.90;2.60;;;13.20;99.90;;;;;;4912416;29;20439;-48
2022/03/19 08:19:44;;;;;;;8.63;2.97;;;13.00;99.90;;;;;;4914596;29;20665;-48
2022/03/19 08:22:09;;;;;;;9.60;3.53;;;13.30;99.90;;;;;;4914725;29;20454;-47
2022/03/19 08:24:36;;;;;;;7.07;2.80;;;13.60;99.90;;;;;;4913769;29;20455;-47
2022/03/19 08:27:01;;;;;;;12.00;2.40;;;13.70;99.90;;;;;;4912211;29;20202;-47
2022/03/19 08:29:27;;;;;;;11.83;2.73;;;13.60;99.90;;;;;;4914824;29;21000;-47
2022/03/19 08:31:54;;;;;;;10.73;2.47;;;13.90;99.90;;;;;;4914926;29;20199;-47
2022/03/19 08:34:20;;;;;;;10.97;2.80;;;13.90;99.90;;;;;;4914155;29;20434;-47
2022/03/19 08:36:46;;;;;;;9.23;2.53;;;14.00;99.90;;;;;;4914562;29;20494;-47
2022/03/19 08:41:57;;;;;;;8.93;3.20;;;14.40;99.90;;;;;;4914662;29;20268;-48
2022/03/19 08:44:23;;;;;;;7.30;2.67;;;14.70;99.90;;;;;;4915055;29;20514;-47
2022/03/19 08:46:50;;;;;;;10.10;3.30;;;14.70;99.90;;;;;;4913977;29;20511;-43
2022/03/19 08:49:16;;;;;;;6.87;2.53;;;15.00;99.90;;;;;;4915686;29;20561;-43
2022/03/19 08:51:41;;;;;;;8.57;2.53;;;15.40;99.90;;;;;;4914576;29;20443;-43
2022/03/19 08:54:12;;;;;;;17.53;2.60;;;15.70;99.90;;;;;;4912532;29;20202;-44
2022/03/19 08:56:38;;;;;;;12.10;2.87;;;15.90;99.90;;;;;;4913856;29;20764;-45
2022/03/19 08:59:04;;;;;;;7.60;2.70;;;16.00;99.90;;;;;;4911620;29;20451;-45
2022/03/19 09:01:30;;;;;;;8.87;2.70;;;15.80;99.90;;;;;;4913045;29;20225;-43
2022/03/19 09:03:56;;;;;;;8.63;2.30;;;15.70;99.90;;;;;;4913065;29;20475;-44
2022/03/19 09:06:22;;;;;;;7.93;2.43;;;15.70;99.90;;;;;;4914334;29;20431;-43
2022/03/19 09:08:51;;;;;;;11.60;3.07;;;15.90;99.90;;;;;;4912256;29;20435;-44
2022/03/19 09:11:18;;;;;;;4.37;2.30;;;16.00;99.90;;;;;;4912922;29;20280;-44
2022/03/19 09:13:47;;;;;;;9.10;2.20;;;16.00;99.90;;;;;;4914123;29;20442;-44
2022/03/19 09:16:14;;;;;;;8.10;2.83;;;16.00;99.90;;;;;;4909163;29;21065;-44
2022/03/19 09:18:40;;;;;;;4.93;2.03;;;15.80;99.90;;;;;;4913233;29;20445;-45
2022/03/19 09:21:05;;;;;;;11.27;2.37;;;15.60;99.90;;;;;;4896041;29;20504;-44
2022/03/19 09:23:31;;;;;;;8.40;2.93;;;15.20;99.90;;;;;;4913088;29;21073;-44
2022/03/19 09:25:57;;;;;;;11.60;2.53;;;15.20;99.90;;;;;;4927318;29;20501;-44
2022/03/19 09:28:23;;;;;;;10.27;2.37;;;15.20;99.90;;;;;;4913073;29;20301;-44
2022/03/19 09:30:48;;;;;;;5.83;2.27;;;15.00;99.90;;;;;;4910187;29;20207;-44
2022/03/19 09:33:14;;;;;;;14.23;2.03;;;14.90;99.90;;;;;;4910566;29;20659;-44
2022/03/19 09:35:40;;;;;;;5.30;2.00;;;14.90;99.90;;;;;;4913031;29;20203;-44
2022/03/19 09:38:06;;;;;;;4.37;2.00;;;14.60;99.90;;;;;;4912492;29;20822;-43
2022/03/19 09:40:31;;;;;;;5.07;2.03;;;14.00;99.90;;;;;;4912477;29;20983;-43
2022/03/19 09:42:57;;;;;;;12.73;2.73;;;13.60;99.90;;;;;;4912702;29;20282;-43
2022/03/19 09:45:26;;;;;;;4.80;2.20;;;13.40;99.90;;;;;;4910256;29;20227;-43
2022/03/19 09:47:53;;;;;;;7.63;2.30;;;13.30;99.90;;;;;;4912090;29;20198;-43
2022/03/19 09:50:19;;;;;;;4.30;1.90;;;13.30;99.90;;;;;;4910353;29;20469;-44
2022/03/19 09:52:50;;;;;;;9.10;2.40;;;13.10;99.90;;;;;;4911454;29;20453;-43
2022/03/19 09:55:16;;;;;;;7.27;2.53;;;13.00;99.90;;;;;;4912247;29;20466;-43
2022/03/19 09:57:42;;;;;;;6.20;2.40;;;13.00;99.90;;;;;;4861104;29;1049452;-43
2022/03/19 10:00:09;;;;;;;4.43;1.70;;;13.00;99.90;;;;;;4912810;29;20211;-43
2022/03/19 10:02:56;;;;;;;3.70;1.77;;;12.70;99.90;;;;;;4912972;29;20976;-44
2022/03/19 10:10:53;;;;;;;7.70;2.13;;;12.40;99.90;;;;;;4913357;29;20526;-44
2022/03/19 10:13:18;;;;;;;5.60;2.03;;;12.50;99.90;;;;;;4912851;29;21015;-44
2022/03/19 10:15:44;;;;;;;3.03;1.40;;;12.80;99.90;;;;;;4912951;29;20534;-44
2022/03/19 10:18:11;;;;;;;4.97;1.60;;;13.00;99.90;;;;;;4911080;29;20665;-44
2022/03/19 10:20:37;;;;;;;8.10;1.97;;;13.10;99.90;;;;;;4911989;29;20254;-44
2022/03/19 10:23:04;;;;;;;5.10;1.70;;;12.90;99.90;;;;;;4913327;29;20439;-44
2022/03/19 10:25:30;;;;;;;3.20;1.57;;;13.10;99.90;;;;;;4908013;29;20486;-44
2022/03/19 10:28:11;;;;;;;4.50;1.60;;;13.20;99.90;;;;;;4911972;29;20442;-44
2022/03/19 10:30:40;;;;;;;3.87;2.10;;;13.20;99.90;;;;;;4909540;29;20443;-44
2022/03/19 10:33:10;;;;;;;5.40;1.77;;;13.20;99.90;;;;;;4917117;29;20451;-44
2022/03/19 10:35:42;;;;;;;5.77;1.80;;;13.20;99.90;;;;;;4908927;29;20451;-44
2022/03/19 10:38:22;;;;;;;4.17;1.70;;;13.20;99.90;;;;;;4912042;29;20440;-44
2022/03/19 10:40:51;;;;;;;4.13;1.77;;;13.50;99.90;;;;;;4909745;29;20926;-50
2022/03/19 10:43:18;;;;;;;4.60;1.33;;;13.80;99.90;;;;;;4912388;29;20439;-47
2022/03/19 10:45:46;;;;;;;3.53;1.30;;;14.00;99.90;;;;;;4911785;29;20439;-42
2022/03/19 10:48:12;;;;;;;2.80;1.40;;;14.00;99.90;;;;;;4908350;29;20533;-41
2022/03/19 10:50:40;;;;;;;2.50;1.27;;;14.40;99.90;;;;;;4910550;29;20462;-41
2022/03/19 10:53:06;;;;;;;5.10;1.67;;;15.00;99.90;;;;;;4911746;29;20499;-44
2022/03/19 10:55:33;;;;;;;5.37;1.50;;;16.00;99.90;;;;;;4911207;29;20823;-45
2022/03/19 10:58:01;;;;;;;5.37;1.57;;;16.70;99.90;;;;;;4911525;29;20581;-43
2022/03/19 11:00:28;;;;;;;3.03;1.53;;;17.10;99.90;;;;;;4893093;29;20482;-42
2022/03/19 11:02:57;;;;;;;2.83;1.30;;;17.80;99.90;;;;;;4913143;29;20530;-44
2022/03/19 11:05:26;;;;;;;5.57;1.60;;;17.80;99.90;;;;;;4915734;29;20465;-44
2022/03/19 11:07:53;;;;;;;3.43;1.40;;;17.50;99.90;;;;;;4914528;29;20445;-43
2022/03/19 11:10:21;;;;;;;5.87;1.57;;;17.90;99.90;;;;;;4913653;29;20913;-44
2022/03/19 11:12:52;;;;;;;2.90;1.93;;;18.80;99.90;;;;;;4916029;29;20836;-43
2022/03/19 11:15:19;;;;;;;3.47;1.57;;;19.30;99.90;;;;;;4915651;29;20459;-43
2022/03/19 11:17:48;;;;;;;7.93;1.90;;;19.80;99.90;;;;;;4915110;29;20481;-43
2022/03/19 11:20:15;;;;;;;4.87;1.90;;;20.30;99.90;;;;;;4896603;29;20595;-43
2022/03/19 11:22:47;;;;;;;9.17;2.40;;;20.70;99.90;;;;;;4915127;29;20427;-43
2022/03/19 11:25:27;;;;;;;5.90;1.97;;;20.70;99.90;;;;;;4915155;29;20434;-43
2022/03/19 11:28:10;;;;;;;2.90;1.40;;;20.80;99.90;;;;;;4911635;29;20443;-43
2022/03/19 11:30:41;;;;;;;3.03;1.70;;;20.70;99.90;;;;;;4916251;29;20419;-43
2022/03/19 11:33:18;;;;;;;4.43;1.63;;;20.60;99.90;;;;;;4913793;29;20438;-48
2022/03/19 11:36:01;;;;;;;3.37;1.53;;;20.70;99.90;;;;;;4915158;29;20533;-47
2022/03/19 11:38:29;;;;;;;2.80;1.50;;;21.00;99.90;;;;;;4914966;29;20431;-47
2022/03/19 11:40:56;;;;;;;2.27;1.47;;;21.10;99.90;;;;;;4911688;29;20489;-48
2022/03/19 11:43:24;;;;;;;5.63;1.87;;;21.30;99.90;;;;;;4914504;29;20518;-48
2022/03/19 11:46:00;;;;;;;2.77;1.50;;;21.10;99.90;;;;;;4914277;29;20427;-48
2022/03/19 11:48:37;;;;;;;3.87;1.40;;;21.00;99.90;;;;;;4915479;29;20505;-48
2022/03/19 11:51:24;;;;;;;3.57;1.60;;;20.60;99.90;;;;;;4914811;29;20434;-48
2022/03/19 11:53:55;;;;;;;4.60;1.70;;;20.70;99.90;;;;;;4914813;29;20477;-49
2022/03/19 11:56:23;;;;;;;3.10;1.73;;;20.10;99.90;;;;;;4915748;29;20478;-48
2022/03/19 11:58:49;;;;;;;2.93;1.90;;;20.20;99.90;;;;;;4915442;29;20527;-48
2022/03/19 12:01:16;;;;;;;10.33;2.10;;;20.40;99.90;;;;;;4914467;29;20463;-48
2022/03/19 12:04:08;;;;;;;3.90;1.70;;;20.60;99.90;;;;;;4911502;29;20453;-48
2022/03/19 12:06:38;;;;;;;3.47;1.97;;;20.60;99.90;;;;;;4911487;29;20450;-48
2022/03/19 12:09:04;;;;;;;2.07;1.67;;;20.70;99.90;;;;;;4910951;29;20537;-49
2022/03/19 12:11:32;;;;;;;3.20;1.80;;;20.20;99.90;;;;;;4897943;29;20546;-49
2022/03/19 12:13:58;;;;;;;4.33;2.00;;;20.20;99.90;;;;;;4911404;29;20265;-48
2022/03/19 12:16:45;;;;;;;4.13;1.80;;;19.90;99.90;;;;;;4914521;29;21040;-49
2022/03/19 12:19:11;;;;;;;7.93;2.40;;;19.60;99.90;;;;;;4914330;29;20554;-49
2022/03/19 12:21:42;;;;;;;5.87;1.80;;;19.10;99.90;;;;;;4914688;29;20569;-48
2022/03/19 12:24:22;;;;;;;4.07;1.90;;;18.40;99.90;;;;;;4914759;29;20207;-48
2022/03/19 12:26:49;;;;;;;6.77;2.10;;;17.70;99.90;;;;;;4915226;29;20471;-49
2022/03/19 12:29:18;;;;;;;7.47;2.40;;;16.60;99.90;;;;;;4913974;29;20442;-49
2022/03/19 12:31:46;;;;;;;3.50;2.20;;;17.00;99.90;;;;;;4914297;29;21326;-48
2022/03/19 12:34:24;;;;;;;5.83;2.17;;;17.10;99.90;;;;;;4914599;29;20427;-49
2022/03/19 12:36:52;;;;;;;5.07;2.47;;;17.10;99.90;;;;;;4910078;29;20443;-48
2022/03/19 12:39:18;;;;;;;5.40;1.77;;;17.10;99.90;;;;;;4914135;29;20455;-48
2022/03/19 12:41:44;;;;;;;2.93;2.33;;;16.50;99.90;;;;;;4915311;29;20478;-48
2022/03/19 12:44:25;;;;;;;3.27;1.90;;;15.50;99.90;;;;;;4913630;29;20260;-49
2022/03/19 12:47:00;;;;;;;2.70;1.97;;;14.50;99.90;;;;;;4914461;29;20427;-48
2022/03/19 12:49:27;;;;;;;8.30;2.50;;;14.00;99.90;;;;;;4910567;29;20445;-49
2022/03/19 12:51:53;;;;;;;4.97;2.60;;;13.70;99.90;;;;;;4914086;29;20443;-49
2022/03/19 12:54:29;;;;;;;4.87;2.60;;;14.10;99.90;;;;;;4913357;29;20814;-49
2022/03/19 12:56:58;;;;;;;4.17;2.40;;;14.80;99.90;;;;;;4910851;29;20526;-48
2022/03/19 12:59:28;;;;;;;6.47;2.20;;;15.00;99.90;;;;;;4914872;29;20438;-47
2022/03/19 13:01:55;;;;;;;2.47;2.27;;;14.40;99.90;;;;;;4913641;29;20474;-48
2022/03/19 13:04:29;;;;;;;11.67;3.00;;;14.50;99.90;;;;;;4910751;29;20499;-47
2022/03/19 13:06:56;;;;;;;4.90;2.60;;;14.40;99.90;;;;;;4911208;29;21217;-47
2022/03/19 13:09:37;;;;;;;4.90;2.30;;;14.80;99.90;;;;;;4897193;29;20568;-50